createdAt,value
2022-10-06T00:00:38.460Z,102049.50
2022-10-06T00:03:05.140Z,102043.06
2022-10-06T00:05:31.783Z,102039.25
2022-10-06T00:07:58.835Z,102035.09
2022-10-06T00:10:25.335Z,102048.22
2022-10-06T00:12:52.789Z,102043.94
2022-10-06T00:15:23.083Z,102042.34
2022-10-06T00:17:51.015Z,102043.50
2022-10-06T00:20:18.086Z,102038.81
2022-10-06T00:22:47.359Z,102040.28
2022-10-06T00:25:16.573Z,102032.16
2022-10-06T00:27:47.207Z,102039.84
2022-10-06T00:30:19.572Z,102041.28
2022-10-06T00:33:03.097Z,102049.69
2022-10-06T00:35:33.585Z,102033.03
2022-10-06T00:38:01.320Z,102040.59
2022-10-06T00:40:28.721Z,102039.56
2022-10-06T00:43:03.594Z,102035.44
2022-10-06T00:45:48.224Z,102025.19
2022-10-06T00:48:32.399Z,102035.75
2022-10-06T00:50:59.572Z,102029.78
2022-10-06T00:53:31.870Z,102035.44
2022-10-06T00:55:58.558Z,102029.91
2022-10-06T00:58:25.539Z,102028.19
2022-10-06T01:00:54.685Z,102026.06
2022-10-06T01:03:24.017Z,102035.91
2022-10-06T01:05:51.896Z,102033.47
2022-10-06T01:08:19.254Z,102035.03
2022-10-06T01:10:45.939Z,102029.19
2022-10-06T01:13:14.155Z,102021.22
2022-10-06T01:15:47.832Z,102025.19
2022-10-06T01:18:18.640Z,102029.19
2022-10-06T01:20:58.702Z,102022.66
2022-10-06T01:23:25.798Z,102025.22
2022-10-06T01:25:52.970Z,102036.75
2022-10-06T01:28:19.773Z,102033.91
2022-10-06T01:30:52.712Z,102034.22
2022-10-06T01:33:20.833Z,102031.19
2022-10-06T01:35:51.104Z,102038.50
2022-10-06T01:38:18.537Z,102021.78
2022-10-06T01:40:46.041Z,102022.94
2022-10-06T01:43:12.616Z,102029.38
2022-10-06T01:45:39.219Z,102028.94
2022-10-06T01:48:06.932Z,102026.22
2022-10-06T01:50:33.513Z,102035.22
2022-10-06T01:53:00.046Z,102023.09
2022-10-06T01:55:27.240Z,102028.22
2022-10-06T01:57:53.913Z,102024.25
2022-10-06T02:00:20.465Z,102022.25
2022-10-06T02:02:47.167Z,102029.50
2022-10-06T02:05:14.765Z,102016.38
2022-10-06T02:07:41.435Z,102028.94
2022-10-06T02:10:08.386Z,102024.41
2022-10-06T02:12:35.150Z,102021.69
2022-10-06T02:15:02.341Z,102013.84
2022-10-06T02:17:29.397Z,102015.84
2022-10-06T02:19:56.050Z,102029.22
2022-10-06T02:22:22.656Z,102024.81
2022-10-06T02:24:49.349Z,102026.09
2022-10-06T02:27:15.963Z,102022.97
2022-10-06T02:29:42.531Z,102016.84
2022-10-06T02:32:09.093Z,102028.38
2022-10-06T02:34:35.649Z,102015.13
2022-10-06T02:37:02.237Z,102016.41
2022-10-06T02:39:28.824Z,102006.59
2022-10-06T02:41:55.793Z,102011.00
2022-10-06T02:44:23.245Z,102013.84
2022-10-06T02:46:50.005Z,102021.66
2022-10-06T02:49:16.732Z,102010.44
2022-10-06T02:51:43.265Z,102004.47
2022-10-06T02:54:10.016Z,102019.81
2022-10-06T02:56:37.975Z,102024.53
2022-10-06T02:59:04.520Z,102029.78
2022-10-06T03:01:31.205Z,102020.41
2022-10-06T03:03:57.851Z,102029.53
2022-10-06T03:06:29.991Z,102036.66
2022-10-06T03:09:02.168Z,102020.97
2022-10-06T03:11:33.965Z,102027.53
2022-10-06T03:14:00.991Z,102027.81
2022-10-06T03:16:36.086Z,102025.25
2022-10-06T03:19:03.573Z,102025.25
2022-10-06T03:21:32.135Z,102031.38
2022-10-06T03:23:59.448Z,102030.22
2022-10-06T03:26:28.867Z,102034.94
2022-10-06T03:28:56.426Z,102033.25
2022-10-06T03:31:23.785Z,102033.25
2022-10-06T03:33:51.370Z,102031.81
2022-10-06T03:36:20.390Z,102021.53
2022-10-06T03:38:47.472Z,102024.25
2022-10-06T03:41:16.933Z,102026.38
2022-10-06T03:43:45.554Z,102008.88
2022-10-06T03:46:14.385Z,102012.41
2022-10-06T03:48:40.936Z,102026.25
2022-10-06T03:51:11.704Z,102019.13
2022-10-06T03:53:38.996Z,102027.25
2022-10-06T03:56:10.936Z,102021.25
2022-10-06T03:58:41.145Z,102024.53
2022-10-06T04:01:12.090Z,102021.25
2022-10-06T04:03:38.690Z,102018.66
2022-10-06T04:06:07.250Z,102030.97
2022-10-06T04:08:35.253Z,102030.97
2022-10-06T04:11:23.631Z,102023.81
2022-10-06T04:13:56.733Z,102017.81
2022-10-06T04:16:26.373Z,102018.56
2022-10-06T04:18:55.105Z,102016.81
2022-10-06T04:21:22.580Z,102031.66
2022-10-06T04:23:49.437Z,102028.09
2022-10-06T04:26:18.525Z,102036.22
2022-10-06T04:28:46.170Z,102035.25
2022-10-06T04:31:24.759Z,102033.25
2022-10-06T04:33:53.820Z,102031.53
2022-10-06T04:36:26.768Z,102036.94
2022-10-06T04:38:58.901Z,102033.25
2022-10-06T04:41:33.661Z,102033.50
2022-10-06T04:44:00.986Z,102037.94
2022-10-06T04:46:42.548Z,102046.91
2022-10-06T04:49:13.396Z,102039.94
2022-10-06T04:51:44.579Z,102041.63
2022-10-06T04:54:11.396Z,102049.19
2022-10-06T04:56:38.036Z,102046.47
2022-10-06T04:59:04.601Z,102055.31
2022-10-06T05:01:36.774Z,102049.75
2022-10-06T05:04:06.090Z,102052.34
2022-10-06T05:06:41.503Z,102051.47
2022-10-06T05:09:13.505Z,102055.06
2022-10-06T05:11:40.398Z,102058.88
2022-10-06T05:14:07.460Z,102052.63
2022-10-06T05:16:34.609Z,102060.72
2022-10-06T05:19:01.338Z,102059.31
2022-10-06T05:21:30.012Z,102062.31
2022-10-06T05:23:56.992Z,102068.00
2022-10-06T05:26:27.227Z,102080.53
2022-10-06T05:28:53.840Z,102078.66
2022-10-06T05:31:23.458Z,102065.59
2022-10-06T05:33:50.154Z,102078.97
2022-10-06T05:36:18.986Z,102088.09
2022-10-06T05:38:45.777Z,102102.34
2022-10-06T05:41:21.317Z,102095.94
2022-10-06T05:43:48.444Z,102088.47
2022-10-06T05:46:20.387Z,102106.16
2022-10-06T05:48:49.317Z,102101.50
2022-10-06T05:51:16.680Z,102098.06
2022-10-06T05:53:43.961Z,102098.50
2022-10-06T05:56:43.596Z,102101.81
2022-10-06T05:59:10.171Z,102102.22
2022-10-06T06:01:41.552Z,102096.22
2022-10-06T06:04:11.500Z,102106.09
2022-10-06T06:06:40.524Z,102106.78
2022-10-06T06:09:09.606Z,102104.81
2022-10-06T06:11:41.863Z,102108.63
2022-10-06T06:14:11.329Z,102114.78
2022-10-06T06:16:39.836Z,102117.44
2022-10-06T06:19:08.185Z,102108.56
2022-10-06T06:21:34.796Z,102104.41
2022-10-06T06:24:02.843Z,102113.84
2022-10-06T06:26:33.211Z,102115.09
2022-10-06T06:29:03.964Z,102120.09
2022-10-06T06:31:33.315Z,102125.28
2022-10-06T06:34:02.207Z,102127.13
2022-10-06T06:36:30.088Z,102134.47
2022-10-06T06:38:58.225Z,102135.81
2022-10-06T06:41:29.904Z,102145.94
2022-10-06T06:43:58.123Z,102149.44
2022-10-06T06:46:27.590Z,102146.28
2022-10-06T06:48:55.751Z,102152.50
2022-10-06T06:51:25.921Z,102147.56
2022-10-06T06:53:53.313Z,102156.44
2022-10-06T06:56:22.096Z,102158.78
2022-10-06T06:58:49.113Z,102162.78
2022-10-06T07:01:20.463Z,102170.03
2022-10-06T07:03:57.608Z,102169.50
2022-10-06T07:06:28.705Z,102163.44
2022-10-06T07:08:57.272Z,102168.09
2022-10-06T07:11:25.836Z,102169.94
2022-10-06T07:14:06.866Z,102176.75
2022-10-06T07:16:52.001Z,102171.22
2022-10-06T07:19:39.630Z,102179.81
2022-10-06T07:22:27.599Z,102177.44
2022-10-06T07:25:08.023Z,102181.72
2022-10-06T07:27:42.555Z,102182.28
2022-10-06T07:30:20.366Z,102184.63
2022-10-06T07:32:50.423Z,102188.97
2022-10-06T07:35:21.508Z,102188.34
2022-10-06T07:37:49.915Z,102197.19
2022-10-06T07:40:17.354Z,102193.03
2022-10-06T07:42:51.962Z,102203.97
2022-10-06T07:45:39.075Z,102208.66
2022-10-06T07:48:11.102Z,102202.44
2022-10-06T07:50:39.677Z,102199.91
2022-10-06T07:53:09.764Z,102201.25
2022-10-06T07:55:40.251Z,102200.44
2022-10-06T07:58:10.754Z,102201.28
2022-10-06T08:00:37.637Z,102200.81
2022-10-06T08:03:04.341Z,102212.88
2022-10-06T08:05:32.362Z,102212.66
2022-10-06T08:07:58.784Z,102217.28
2022-10-06T08:10:25.802Z,102214.97
2022-10-06T08:12:52.426Z,102218.06
2022-10-06T08:15:19.501Z,102223.38
2022-10-06T08:17:46.277Z,102217.41
2022-10-06T08:21:05.491Z,102227.88
2022-10-06T08:23:32.114Z,102222.47
2022-10-06T08:25:58.619Z,102228.50
2022-10-06T08:28:25.254Z,102218.25
2022-10-06T08:30:52.481Z,102224.53
2022-10-06T08:33:21.573Z,102223.94
2022-10-06T08:35:48.428Z,102225.47
2022-10-06T08:38:15.227Z,102227.78
2022-10-06T08:40:44.128Z,102220.59
2022-10-06T08:43:18.998Z,102227.47
2022-10-06T08:45:47.661Z,102235.81
2022-10-06T08:48:20.409Z,102237.94
2022-10-06T08:51:00.786Z,102238.22
2022-10-06T08:53:30.390Z,102235.03
2022-10-06T08:56:28.058Z,102234.81
2022-10-06T08:58:58.457Z,102241.00
2022-10-06T09:01:28.362Z,102240.97
2022-10-06T09:04:01.656Z,102241.91
2022-10-06T09:06:31.539Z,102247.53
2022-10-06T09:09:06.819Z,102228.38
2022-10-06T09:12:18.400Z,102236.00
2022-10-06T09:15:03.363Z,102225.31
2022-10-06T09:17:38.932Z,102235.22
2022-10-06T09:20:17.696Z,102232.63
2022-10-06T09:22:46.166Z,102235.63
2022-10-06T09:25:20.346Z,102233.72
2022-10-06T09:27:54.036Z,102227.59
2022-10-06T09:30:20.765Z,102239.09
2022-10-06T09:32:53.863Z,102239.88
2022-10-06T09:35:23.704Z,102233.84
2022-10-06T09:38:08.658Z,102242.78
2022-10-06T09:40:51.886Z,102239.97
2022-10-06T09:43:29.607Z,102243.06
2022-10-06T09:46:28.510Z,102236.97
2022-10-06T09:49:17.363Z,102235.88
2022-10-06T09:52:15.049Z,102238.56
2022-10-06T09:54:45.184Z,102240.16
2022-10-06T09:57:19.881Z,102237.13
2022-10-06T09:59:47.921Z,102243.69
2022-10-06T10:02:24.892Z,102226.44
2022-10-06T10:04:55.455Z,102219.00
2022-10-06T10:07:27.724Z,102232.47
2022-10-06T10:10:12.657Z,102217.41
2022-10-06T10:12:53.403Z,102222.81
2022-10-06T10:15:19.907Z,102223.84
2022-10-06T10:17:51.409Z,102217.06
2022-10-06T10:20:50.811Z,102215.34
2022-10-06T10:23:31.680Z,102221.84
2022-10-06T10:26:13.670Z,102226.06
2022-10-06T10:28:55.614Z,102219.75
2022-10-06T10:31:43.544Z,102206.75
2022-10-06T10:34:24.398Z,102217.00
2022-10-06T10:36:57.652Z,102212.94
2022-10-06T10:39:33.615Z,102214.22
2022-10-06T10:42:05.053Z,102218.47
2022-10-06T10:44:41.337Z,102211.06
2022-10-06T10:47:25.542Z,102211.69
2022-10-06T10:50:03.037Z,102203.81
2022-10-06T10:52:35.959Z,102207.66
2022-10-06T10:55:34.176Z,102207.84
2022-10-06T10:58:11.275Z,102205.94
2022-10-06T11:00:43.225Z,102205.91
2022-10-06T11:03:11.655Z,102206.44
2022-10-06T11:05:59.380Z,102212.06
2022-10-06T11:08:39.760Z,102206.25
2022-10-06T11:11:21.341Z,102194.06
2022-10-06T11:13:52.450Z,102208.47
2022-10-06T11:16:40.778Z,102206.28
2022-10-06T11:19:44.666Z,102204.13
2022-10-06T11:22:44.983Z,102187.25
2022-10-06T11:25:45.265Z,102196.75
2022-10-06T11:28:43.476Z,102188.97
2022-10-06T11:31:34.306Z,102180.50
2022-10-06T11:34:03.741Z,102188.28
2022-10-06T11:36:45.447Z,102181.63
2022-10-06T11:39:24.708Z,102185.72
2022-10-06T11:42:20.473Z,102187.38
2022-10-06T11:44:55.065Z,102166.06
2022-10-06T11:47:35.401Z,102178.56
2022-10-06T11:50:22.887Z,102169.47
2022-10-06T11:52:52.680Z,102170.47
2022-10-06T11:55:24.077Z,102172.97
2022-10-06T11:58:37.466Z,102172.81
2022-10-06T12:01:00.042Z,102169.91
2022-10-06T12:03:31.033Z,102177.97
2022-10-06T12:05:59.910Z,102172.97
2022-10-06T12:08:43.969Z,102165.47
2022-10-06T12:11:39.099Z,102162.00
2022-10-06T12:16:00.203Z,102156.31
2022-10-06T12:17:32.241Z,102145.72
2022-10-06T12:20:25.825Z,102136.16
2022-10-06T12:22:59.163Z,102141.88
2022-10-06T12:25:35.984Z,102147.81
2022-10-06T12:28:37.553Z,102138.50
2022-10-06T12:31:23.123Z,102129.84
2022-10-06T12:39:29.643Z,102133.84
2022-10-06T12:42:06.636Z,102132.78
2022-10-06T12:44:45.686Z,102112.84
2022-10-06T12:47:37.595Z,102130.50
2022-10-06T12:50:25.889Z,102119.44
2022-10-06T12:53:16.210Z,102123.66
2022-10-06T12:55:53.850Z,102119.44
2022-10-06T12:58:29.129Z,102123.88
2022-10-06T13:01:04.160Z,102119.88
2022-10-06T13:03:31.408Z,102123.66
2022-10-06T13:06:04.984Z,102116.44
2022-10-06T13:08:36.985Z,102113.91
2022-10-06T13:11:12.574Z,102112.22
2022-10-06T13:13:50.231Z,102115.19
2022-10-06T13:16:40.920Z,102121.56
2022-10-06T13:19:22.232Z,102115.56
2022-10-06T13:21:48.870Z,102111.72
2022-10-06T13:24:20.564Z,102128.25
2022-10-06T13:26:48.242Z,102127.25
2022-10-06T13:29:24.273Z,102130.19
2022-10-06T13:31:53.433Z,102118.13
2022-10-06T13:34:33.334Z,102127.22
2022-10-06T13:37:01.322Z,102129.09
2022-10-06T13:39:32.379Z,102123.59
2022-10-06T13:42:02.575Z,102116.41
2022-10-06T13:44:39.260Z,102118.97
2022-10-06T13:47:14.812Z,102108.19
2022-10-06T13:49:57.152Z,102102.03
2022-10-06T13:52:33.160Z,102106.31
2022-10-06T13:55:01.246Z,102107.59
2022-10-06T13:57:46.392Z,102103.34
2022-10-06T14:00:19.357Z,102111.41
2022-10-06T14:02:48.858Z,102106.06
2022-10-06T14:05:19.364Z,102118.56
2022-10-06T14:07:47.105Z,102107.97
2022-10-06T14:10:48.683Z,102110.53
2022-10-06T14:13:23.599Z,102118.38
2022-10-06T14:15:54.765Z,102110.09
2022-10-06T14:18:33.806Z,102113.28
2022-10-06T14:21:35.208Z,102111.34
2022-10-06T14:24:07.834Z,102107.53
2022-10-06T14:26:37.445Z,102110.72
2022-10-06T14:29:04.511Z,102109.25
2022-10-06T14:31:33.450Z,102107.97
2022-10-06T14:34:01.300Z,102106.69
2022-10-06T14:36:30.999Z,102098.66
2022-10-06T14:38:59.155Z,102109.06
2022-10-06T14:41:28.676Z,102107.56
2022-10-06T14:43:56.307Z,102103.94
2022-10-06T14:46:25.639Z,102105.78
2022-10-06T14:48:52.798Z,102101.50
2022-10-06T14:51:20.397Z,102110.41
2022-10-06T14:53:55.214Z,102109.56
2022-10-06T14:56:23.801Z,102106.13
2022-10-06T14:58:52.502Z,102094.03
2022-10-06T15:01:23.251Z,102104.38
2022-10-06T15:03:55.068Z,102108.63
2022-10-06T15:06:41.003Z,102099.34
2022-10-06T15:09:08.368Z,102109.06
2022-10-06T15:11:36.067Z,102103.91
2022-10-06T15:14:03.864Z,102106.03
2022-10-06T15:16:32.949Z,102105.59
2022-10-06T15:19:01.179Z,102105.16
2022-10-06T15:21:29.971Z,102099.00
2022-10-06T15:24:03.264Z,102098.78
2022-10-06T15:26:49.448Z,102106.41
2022-10-06T15:29:17.022Z,102106.38
2022-10-06T15:31:55.059Z,102107.66
2022-10-06T15:34:26.928Z,102099.63
2022-10-06T15:36:55.120Z,102096.97
2022-10-06T15:39:24.510Z,102108.00
2022-10-06T15:41:51.999Z,102100.59
2022-10-06T15:44:21.989Z,102099.72
2022-10-06T15:46:54.409Z,102101.84
2022-10-06T15:49:26.081Z,102103.44
2022-10-06T15:51:59.594Z,102088.59
2022-10-06T15:54:28.895Z,102106.31
2022-10-06T15:56:58.028Z,102098.22
2022-10-06T15:59:27.569Z,102089.03
2022-10-06T16:02:03.976Z,102104.16
2022-10-06T16:04:54.130Z,102111.28
2022-10-06T16:07:20.977Z,102111.59
2022-10-06T16:09:51.881Z,102111.38
2022-10-06T16:12:21.460Z,102114.41
2022-10-06T16:14:48.893Z,102113.75
2022-10-06T16:17:15.828Z,102112.41
2022-10-06T16:19:42.792Z,102107.88
2022-10-06T16:22:15.580Z,102119.19
2022-10-06T16:24:42.196Z,102116.38
2022-10-06T16:27:13.602Z,102119.44
2022-10-06T16:29:40.610Z,102126.31
2022-10-06T16:32:07.216Z,102117.75
2022-10-06T16:34:33.918Z,102118.97
2022-10-06T16:37:00.557Z,102119.56
2022-10-06T16:39:27.157Z,102117.47
2022-10-06T16:41:54.604Z,102118.66
2022-10-06T16:44:21.353Z,102134.81
2022-10-06T16:46:47.998Z,102133.41
2022-10-06T16:49:14.801Z,102128.84
2022-10-06T16:51:43.598Z,102139.56
2022-10-06T16:54:12.261Z,102134.63
2022-10-06T16:56:47.713Z,102141.84
2022-10-06T16:59:16.697Z,102135.22
2022-10-06T17:01:44.081Z,102133.91
2022-10-06T17:04:16.436Z,102134.84
2022-10-06T17:06:45.468Z,102139.84
2022-10-06T17:09:14.519Z,102143.69
2022-10-06T17:11:42.950Z,102144.16
2022-10-06T17:14:09.940Z,102153.81
2022-10-06T17:16:39.073Z,102152.00
2022-10-06T17:19:06.582Z,102154.47
2022-10-06T17:21:54.038Z,102162.69
2022-10-06T17:24:20.816Z,102154.69
2022-10-06T17:26:49.790Z,102164.81
2022-10-06T17:29:21.866Z,102166.56
2022-10-06T17:31:51.123Z,102172.94
2022-10-06T17:34:21.873Z,102171.13
2022-10-06T17:36:51.914Z,102179.38
2022-10-06T17:39:21.451Z,102181.78
2022-10-06T17:41:50.345Z,102188.28
2022-10-06T17:44:22.758Z,102185.94
2022-10-06T17:46:52.254Z,102177.09
2022-10-06T17:49:21.515Z,102188.72
2022-10-06T17:51:49.242Z,102179.53
2022-10-06T17:54:19.848Z,102181.75
2022-10-06T17:56:54.874Z,102170.19
2022-10-06T17:59:31.031Z,102178.59
2022-10-06T18:02:00.834Z,102176.88
2022-10-06T18:04:27.575Z,102183.53
2022-10-06T18:06:54.847Z,102183.22
2022-10-06T18:09:22.369Z,102183.94
2022-10-06T18:11:54.953Z,102170.78
2022-10-06T18:14:28.238Z,102188.53
2022-10-06T18:16:58.586Z,102186.44
2022-10-06T18:19:30.690Z,102174.34
2022-10-06T18:22:03.328Z,102190.53
2022-10-06T18:24:31.367Z,102181.00
2022-10-06T18:27:00.470Z,102180.63
2022-10-06T18:29:33.265Z,102190.03
2022-10-06T18:32:38.540Z,102183.34
2022-10-06T18:37:35.173Z,102193.91
2022-10-06T18:40:05.949Z,102198.31
2022-10-06T18:42:33.208Z,102192.13
2022-10-06T18:45:18.295Z,102198.75
2022-10-06T18:48:03.922Z,102202.69
2022-10-06T18:50:31.328Z,102200.38
2022-10-06T18:52:58.015Z,102212.63
2022-10-06T18:55:26.544Z,102202.38
2022-10-06T18:57:53.364Z,102210.88
2022-10-06T19:00:21.208Z,102210.34
2022-10-06T19:02:52.167Z,102208.28
2022-10-06T19:05:19.054Z,102205.84
2022-10-06T19:07:46.259Z,102210.47
2022-10-06T19:10:12.960Z,102217.09
2022-10-06T19:12:39.734Z,102222.19
2022-10-06T19:15:06.728Z,102210.22
2022-10-06T19:17:33.925Z,102205.41
2022-10-06T19:20:00.734Z,102220.88
2022-10-06T19:22:27.458Z,102222.41
2022-10-06T19:24:55.244Z,102221.47
2022-10-06T19:27:26.287Z,102222.00
2022-10-06T19:29:56.773Z,102230.03
2022-10-06T19:32:27.500Z,102223.91
2022-10-06T19:34:59.040Z,102209.66
2022-10-06T19:37:30.376Z,102219.88
2022-10-06T19:39:58.105Z,102226.00
2022-10-06T19:42:43.900Z,102231.63
2022-10-06T19:45:12.164Z,102234.09
2022-10-06T19:47:39.400Z,102234.22
2022-10-06T19:50:11.687Z,102232.97
2022-10-06T19:52:40.321Z,102235.97
2022-10-06T19:55:07.070Z,102228.06
2022-10-06T19:57:34.141Z,102227.50
2022-10-06T20:00:01.100Z,102236.69
2022-10-06T20:02:28.986Z,102233.56
2022-10-06T20:04:56.242Z,102236.38
2022-10-06T20:07:25.626Z,102234.28
2022-10-06T20:09:54.890Z,102238.22
2022-10-06T20:12:24.951Z,102236.13
2022-10-06T20:14:53.861Z,102248.28
2022-10-06T20:17:21.003Z,102247.56
2022-10-06T20:19:53.909Z,102249.59
2022-10-06T20:22:24.602Z,102243.91
2022-10-06T20:25:02.998Z,102229.00
2022-10-06T20:27:29.634Z,102243.41
2022-10-06T20:29:58.253Z,102249.00
2022-10-06T20:35:06.706Z,102234.13
2022-10-06T20:37:34.604Z,102241.44
2022-10-06T20:40:20.499Z,102239.44
2022-10-06T20:42:49.491Z,102231.19
2022-10-06T20:45:16.278Z,102244.78
2022-10-06T20:47:44.481Z,102233.09
2022-10-06T20:50:20.340Z,102248.09
2022-10-06T20:52:47.351Z,102237.22
2022-10-06T20:55:14.842Z,102247.25
2022-10-06T20:57:42.680Z,102240.69
2022-10-06T21:00:10.267Z,102237.81
2022-10-06T21:02:36.936Z,102230.97
2022-10-06T21:05:05.596Z,102245.25
2022-10-06T21:07:32.285Z,102232.84
2022-10-06T21:09:58.830Z,102238.03
2022-10-06T21:12:26.221Z,102230.47
2022-10-06T21:14:52.902Z,102224.94
2022-10-06T21:17:19.786Z,102237.59
2022-10-06T21:19:46.784Z,102236.19
2022-10-06T21:22:13.312Z,102218.38
2022-10-06T21:24:39.964Z,102230.78
2022-10-06T21:27:06.607Z,102233.66
2022-10-06T21:29:33.260Z,102240.19
2022-10-06T21:32:00.465Z,102241.06
2022-10-06T21:34:27.048Z,102237.94
2022-10-06T21:36:53.695Z,102226.50
2022-10-06T21:39:20.593Z,102209.81
2022-10-06T21:41:47.152Z,102223.34
2022-10-06T21:44:18.335Z,102225.22
2022-10-06T21:46:53.396Z,102225.09
2022-10-06T21:49:25.086Z,102212.53
2022-10-06T21:51:54.164Z,102219.78
2022-10-06T21:54:22.448Z,102223.50
2022-10-06T21:56:50.182Z,102213.97
2022-10-06T21:59:18.274Z,102209.25
2022-10-06T22:01:47.317Z,102215.53
2022-10-06T22:04:15.372Z,102208.28
2022-10-06T22:06:43.649Z,102205.59
2022-10-06T22:09:14.881Z,102213.41
2022-10-06T22:11:41.899Z,102217.16
2022-10-06T22:14:12.091Z,102214.44
2022-10-06T22:16:40.033Z,102211.44
2022-10-06T22:19:09.814Z,102206.16
2022-10-06T22:21:38.890Z,102212.91
2022-10-06T22:24:09.315Z,102196.78
2022-10-06T22:26:37.619Z,102196.78
2022-10-06T22:29:06.072Z,102195.19
2022-10-06T22:31:33.262Z,102197.78
2022-10-06T22:34:04.741Z,102193.66
2022-10-06T22:36:33.464Z,102182.38
2022-10-06T22:39:00.385Z,102192.66
2022-10-06T22:41:27.199Z,102184.25
2022-10-06T22:43:57.984Z,102176.81
2022-10-06T22:46:29.155Z,102170.13
2022-10-06T22:48:55.859Z,102176.41
2022-10-06T22:51:22.966Z,102176.09
2022-10-06T22:53:57.654Z,102172.53
2022-10-06T22:56:26.048Z,102166.69
2022-10-06T22:58:52.673Z,102174.69
2022-10-06T23:01:19.695Z,102171.00
2022-10-06T23:03:48.018Z,102172.97
2022-10-06T23:06:16.571Z,102166.69
2022-10-06T23:08:43.344Z,102159.81
2022-10-06T23:11:16.953Z,102158.41
2022-10-06T23:13:44.699Z,102168.56
2022-10-06T23:16:16.471Z,102160.97
2022-10-06T23:18:44.263Z,102173.81
2022-10-06T23:21:21.834Z,102172.97
2022-10-06T23:23:53.956Z,102161.41
2022-10-06T23:26:21.998Z,102173.09
2022-10-06T23:28:56.862Z,102172.38
2022-10-06T23:31:24.669Z,102165.41
2022-10-06T23:33:51.525Z,102161.09
2022-10-06T23:36:18.458Z,102163.81
2022-10-06T23:38:45.735Z,102162.69
2022-10-06T23:41:12.901Z,102158.56
2022-10-06T23:43:39.571Z,102162.69
2022-10-06T23:46:06.281Z,102169.81
2022-10-06T23:48:33.012Z,102153.44
2022-10-06T23:51:08.607Z,102160.13
2022-10-06T23:53:35.757Z,102155.41
2022-10-06T23:56:02.405Z,102150.44
2022-10-06T23:58:29.152Z,102148.56
